sensor_id;sensor_type;location;lat;lon;timestamp;P1;durP1;ratioP1;P2;durP2;ratioP2
23181;SDS011;11759;51.282;6.642;2024-03-02T00:01:48;2.80;;;1.80;;
23181;SDS011;11759;51.282;6.642;2024-03-02T00:04:15;4.55;;;1.77;;
23181;SDS011;11759;51.282;6.642;2024-03-02T00:06:41;3.05;;;2.08;;
23181;SDS011;11759;51.282;6.642;2024-03-02T00:09:08;4.68;;;1.80;;
23181;SDS011;11759;51.282;6.642;2024-03-02T00:11:35;4.03;;;1.77;;
23181;SDS011;11759;51.282;6.642;2024-03-02T00:14:03;3.60;;;2.00;;
23181;SDS011;11759;51.282;6.642;2024-03-02T00:16:32;4.55;;;1.85;;
23181;SDS011;11759;51.282;6.642;2024-03-02T00:19:03;5.70;;;2.25;;
23181;SDS011;11759;51.282;6.642;2024-03-02T00:21:32;3.20;;;1.67;;
23181;SDS011;11759;51.282;6.642;2024-03-02T00:23:59;5.78;;;1.92;;
23181;SDS011;11759;51.282;6.642;2024-03-02T00:26:26;4.50;;;2.10;;
23181;SDS011;11759;51.282;6.642;2024-03-02T00:28:54;5.57;;;1.83;;
23181;SDS011;11759;51.282;6.642;2024-03-02T00:31:23;4.05;;;2.05;;
23181;SDS011;11759;51.282;6.642;2024-03-02T00:33:51;4.25;;;1.77;;
23181;SDS011;11759;51.282;6.642;2024-03-02T00:36:25;5.00;;;2.03;;
23181;SDS011;11759;51.282;6.642;2024-03-02T00:38:53;4.82;;;2.10;;
23181;SDS011;11759;51.282;6.642;2024-03-02T00:46:15;4.28;;;2.20;;
23181;SDS011;11759;51.282;6.642;2024-03-02T00:51:23;6.40;;;1.77;;
23181;SDS011;11759;51.282;6.642;2024-03-02T00:53:52;5.03;;;1.70;;
23181;SDS011;11759;51.282;6.642;2024-03-02T00:56:23;3.67;;;1.77;;
23181;SDS011;11759;51.282;6.642;2024-03-02T00:58:50;4.78;;;1.88;;
23181;SDS011;11759;51.282;6.642;2024-03-02T01:01:18;6.82;;;1.63;;
23181;SDS011;11759;51.282;6.642;2024-03-02T01:03:49;9.57;;;2.10;;
23181;SDS011;11759;51.282;6.642;2024-03-02T01:06:16;3.13;;;1.75;;
23181;SDS011;11759;51.282;6.642;2024-03-02T01:08:43;2.03;;;1.70;;
23181;SDS011;11759;51.282;6.642;2024-03-02T01:11:10;3.85;;;1.63;;
23181;SDS011;11759;51.282;6.642;2024-03-02T01:13:37;2.17;;;1.73;;
23181;SDS011;11759;51.282;6.642;2024-03-02T01:16:04;3.75;;;1.77;;
23181;SDS011;11759;51.282;6.642;2024-03-02T01:18:31;10.32;;;1.65;;
23181;SDS011;11759;51.282;6.642;2024-03-02T01:20:57;3.53;;;1.63;;
23181;SDS011;11759;51.282;6.642;2024-03-02T01:23:24;2.33;;;1.63;;
23181;SDS011;11759;51.282;6.642;2024-03-02T01:25:51;4.07;;;1.60;;
23181;SDS011;11759;51.282;6.642;2024-03-02T01:28:18;2.83;;;1.88;;
23181;SDS011;11759;51.282;6.642;2024-03-02T01:30:46;6.70;;;2.13;;
23181;SDS011;11759;51.282;6.642;2024-03-02T01:33:13;3.20;;;1.63;;
23181;SDS011;11759;51.282;6.642;2024-03-02T01:35:40;4.60;;;1.95;;
23181;SDS011;11759;51.282;6.642;2024-03-02T01:38:07;3.03;;;1.92;;
23181;SDS011;11759;51.282;6.642;2024-03-02T01:40:34;4.78;;;1.70;;
23181;SDS011;11759;51.282;6.642;2024-03-02T01:43:01;3.30;;;2.03;;
23181;SDS011;11759;51.282;6.642;2024-03-02T01:45:28;6.85;;;2.03;;
23181;SDS011;11759;51.282;6.642;2024-03-02T01:47:55;3.25;;;1.88;;
23181;SDS011;11759;51.282;6.642;2024-03-02T01:50:29;6.70;;;2.00;;
23181;SDS011;11759;51.282;6.642;2024-03-02T01:52:58;10.57;;;2.10;;
23181;SDS011;11759;51.282;6.642;2024-03-02T01:55:25;7.10;;;1.95;;
23181;SDS011;11759;51.282;6.642;2024-03-02T01:57:52;5.63;;;1.80;;
23181;SDS011;11759;51.282;6.642;2024-03-02T02:00:19;2.92;;;1.65;;
23181;SDS011;11759;51.282;6.642;2024-03-02T02:02:46;4.72;;;2.10;;
23181;SDS011;11759;51.282;6.642;2024-03-02T02:05:14;4.15;;;2.00;;
23181;SDS011;11759;51.282;6.642;2024-03-02T02:07:41;4.97;;;2.05;;
23181;SDS011;11759;51.282;6.642;2024-03-02T02:10:12;2.58;;;1.63;;
23181;SDS011;11759;51.282;6.642;2024-03-02T02:12:39;5.07;;;1.83;;
23181;SDS011;11759;51.282;6.642;2024-03-02T02:15:24;2.58;;;1.60;;
23181;SDS011;11759;51.282;6.642;2024-03-02T02:17:55;4.20;;;1.77;;
23181;SDS011;11759;51.282;6.642;2024-03-02T02:20:22;3.15;;;2.10;;
23181;SDS011;11759;51.282;6.642;2024-03-02T02:22:59;3.78;;;1.60;;
23181;SDS011;11759;51.282;6.642;2024-03-02T02:25:27;3.85;;;1.98;;
23181;SDS011;11759;51.282;6.642;2024-03-02T02:27:55;2.60;;;1.63;;
23181;SDS011;11759;51.282;6.642;2024-03-02T02:30:24;2.33;;;1.60;;
23181;SDS011;11759;51.282;6.642;2024-03-02T02:32:52;5.68;;;1.50;;
23181;SDS011;11759;51.282;6.642;2024-03-02T02:35:19;3.15;;;1.45;;
23181;SDS011;11759;51.282;6.642;2024-03-02T02:37:46;3.60;;;1.70;;
23181;SDS011;11759;51.282;6.642;2024-03-02T02:40:14;4.78;;;2.03;;
23181;SDS011;11759;51.282;6.642;2024-03-02T02:42:41;4.65;;;1.52;;
23181;SDS011;11759;51.282;6.642;2024-03-02T02:45:07;4.90;;;2.25;;
23181;SDS011;11759;51.282;6.642;2024-03-02T02:47:34;3.30;;;1.90;;
23181;SDS011;11759;51.282;6.642;2024-03-02T02:50:06;3.17;;;1.70;;
23181;SDS011;11759;51.282;6.642;2024-03-02T02:52:33;3.63;;;1.98;;
23181;SDS011;11759;51.282;6.642;2024-03-02T02:55:03;3.88;;;1.85;;
23181;SDS011;11759;51.282;6.642;2024-03-02T02:57:33;5.15;;;1.90;;
23181;SDS011;11759;51.282;6.642;2024-03-02T03:00:05;4.53;;;2.10;;
23181;SDS011;11759;51.282;6.642;2024-03-02T03:02:37;3.45;;;2.03;;
23181;SDS011;11759;51.282;6.642;2024-03-02T03:05:05;2.92;;;1.92;;
23181;SDS011;11759;51.282;6.642;2024-03-02T03:07:32;5.00;;;1.70;;
23181;SDS011;11759;51.282;6.642;2024-03-02T03:10:01;4.22;;;2.08;;
23181;SDS011;11759;51.282;6.642;2024-03-02T03:12:28;4.30;;;1.95;;
23181;SDS011;11759;51.282;6.642;2024-03-02T03:14:55;2.45;;;1.80;;
23181;SDS011;11759;51.282;6.642;2024-03-02T03:17:21;2.67;;;1.92;;
23181;SDS011;11759;51.282;6.642;2024-03-02T03:19:49;6.07;;;2.08;;
23181;SDS011;11759;51.282;6.642;2024-03-02T03:22:16;2.50;;;1.80;;
23181;SDS011;11759;51.282;6.642;2024-03-02T03:24:43;5.88;;;2.22;;
23181;SDS011;11759;51.282;6.642;2024-03-02T03:27:10;4.30;;;1.98;;
23181;SDS011;11759;51.282;6.642;2024-03-02T03:29:38;3.65;;;1.90;;
23181;SDS011;11759;51.282;6.642;2024-03-02T03:32:05;2.45;;;1.90;;
23181;SDS011;11759;51.282;6.642;2024-03-02T03:34:33;4.32;;;2.33;;
23181;SDS011;11759;51.282;6.642;2024-03-02T03:37:01;4.32;;;1.88;;
23181;SDS011;11759;51.282;6.642;2024-03-02T03:39:28;6.50;;;2.40;;
23181;SDS011;11759;51.282;6.642;2024-03-02T03:41:55;4.57;;;2.10;;
23181;SDS011;11759;51.282;6.642;2024-03-02T03:44:22;4.15;;;2.03;;
23181;SDS011;11759;51.282;6.642;2024-03-02T03:46:50;3.00;;;1.80;;
23181;SDS011;11759;51.282;6.642;2024-03-02T03:49:17;5.00;;;2.15;;
23181;SDS011;11759;51.282;6.642;2024-03-02T03:51:43;7.00;;;2.33;;
23181;SDS011;11759;51.282;6.642;2024-03-02T03:54:10;2.72;;;1.63;;
23181;SDS011;11759;51.282;6.642;2024-03-02T03:56:37;6.68;;;2.22;;
23181;SDS011;11759;51.282;6.642;2024-03-02T03:59:04;9.57;;;2.15;;
23181;SDS011;11759;51.282;6.642;2024-03-02T04:01:31;4.32;;;1.83;;
23181;SDS011;11759;51.282;6.642;2024-03-02T04:04:00;3.15;;;1.75;;
23181;SDS011;11759;51.282;6.642;2024-03-02T04:06:30;4.35;;;1.70;;
23181;SDS011;11759;51.282;6.642;2024-03-02T04:08:57;3.10;;;1.67;;
23181;SDS011;11759;51.282;6.642;2024-03-02T04:11:23;6.00;;;1.60;;
23181;SDS011;11759;51.282;6.642;2024-03-02T04:13:50;4.13;;;1.70;;
23181;SDS011;11759;51.282;6.642;2024-03-02T04:16:17;3.75;;;1.90;;
23181;SDS011;11759;51.282;6.642;2024-03-02T04:18:44;5.95;;;2.03;;
23181;SDS011;11759;51.282;6.642;2024-03-02T04:21:10;1.90;;;1.55;;
23181;SDS011;11759;51.282;6.642;2024-03-02T04:23:37;2.33;;;1.60;;
23181;SDS011;11759;51.282;6.642;2024-03-02T04:26:04;3.30;;;1.60;;
23181;SDS011;11759;51.282;6.642;2024-03-02T04:28:31;1.88;;;1.63;;
23181;SDS011;11759;51.282;6.642;2024-03-02T04:30:57;4.32;;;2.10;;
23181;SDS011;11759;51.282;6.642;2024-03-02T04:33:24;6.70;;;1.92;;
23181;SDS011;11759;51.282;6.642;2024-03-02T04:35:51;2.92;;;2.10;;
23181;SDS011;11759;51.282;6.642;2024-03-02T04:38:18;4.07;;;1.95;;
23181;SDS011;11759;51.282;6.642;2024-03-02T04:40:44;3.15;;;1.95;;
23181;SDS011;11759;51.282;6.642;2024-03-02T04:43:11;5.05;;;2.10;;
23181;SDS011;11759;51.282;6.642;2024-03-02T04:45:41;4.90;;;2.30;;
23181;SDS011;11759;51.282;6.642;2024-03-02T04:48:09;4.57;;;2.20;;
23181;SDS011;11759;51.282;6.642;2024-03-02T04:50:35;3.53;;;2.05;;
23181;SDS011;11759;51.282;6.642;2024-03-02T04:53:02;6.95;;;2.28;;
23181;SDS011;11759;51.282;6.642;2024-03-02T04:55:29;3.58;;;2.00;;
23181;SDS011;11759;51.282;6.642;2024-03-02T04:57:56;4.95;;;2.20;;
23181;SDS011;11759;51.282;6.642;2024-03-02T05:00:22;2.03;;;1.80;;
23181;SDS011;11759;51.282;6.642;2024-03-02T05:02:49;4.43;;;2.30;;
23181;SDS011;11759;51.282;6.642;2024-03-02T05:05:17;7.70;;;2.40;;
23181;SDS011;11759;51.282;6.642;2024-03-02T05:07:44;4.65;;;2.20;;
23181;SDS011;11759;51.282;6.642;2024-03-02T05:10:11;3.17;;;2.22;;
23181;SDS011;11759;51.282;6.642;2024-03-02T05:12:41;4.13;;;2.22;;
23181;SDS011;11759;51.282;6.642;2024-03-02T05:15:11;3.47;;;2.20;;
23181;SDS011;11759;51.282;6.642;2024-03-02T05:17:41;4.63;;;2.38;;
23181;SDS011;11759;51.282;6.642;2024-03-02T05:20:11;6.93;;;3.20;;
23181;SDS011;11759;51.282;6.642;2024-03-02T05:22:37;5.85;;;2.78;;
23181;SDS011;11759;51.282;6.642;2024-03-02T05:25:05;5.28;;;2.30;;
23181;SDS011;11759;51.282;6.642;2024-03-02T05:27:33;5.70;;;2.50;;
23181;SDS011;11759;51.282;6.642;2024-03-02T05:29:59;3.55;;;2.42;;
23181;SDS011;11759;51.282;6.642;2024-03-02T05:32:26;7.88;;;2.72;;
23181;SDS011;11759;51.282;6.642;2024-03-02T05:34:53;4.25;;;2.40;;
23181;SDS011;11759;51.282;6.642;2024-03-02T05:37:20;6.20;;;2.40;;
23181;SDS011;11759;51.282;6.642;2024-03-02T05:39:46;5.75;;;2.55;;
23181;SDS011;11759;51.282;6.642;2024-03-02T05:42:13;7.97;;;2.40;;
23181;SDS011;11759;51.282;6.642;2024-03-02T05:44:40;6.22;;;2.67;;
23181;SDS011;11759;51.282;6.642;2024-03-02T05:47:07;6.28;;;2.50;;
23181;SDS011;11759;51.282;6.642;2024-03-02T05:49:35;3.80;;;2.25;;
23181;SDS011;11759;51.282;6.642;2024-03-02T05:52:02;5.13;;;2.38;;
23181;SDS011;11759;51.282;6.642;2024-03-02T05:54:29;3.72;;;2.40;;
23181;SDS011;11759;51.282;6.642;2024-03-02T05:56:56;4.57;;;2.15;;
23181;SDS011;11759;51.282;6.642;2024-03-02T05:59:22;6.30;;;2.60;;
23181;SDS011;11759;51.282;6.642;2024-03-02T06:01:49;6.60;;;2.42;;
23181;SDS011;11759;51.282;6.642;2024-03-02T06:04:18;4.65;;;2.30;;
23181;SDS011;11759;51.282;6.642;2024-03-02T06:06:45;5.53;;;2.70;;
23181;SDS011;11759;51.282;6.642;2024-03-02T06:09:11;5.13;;;2.72;;
23181;SDS011;11759;51.282;6.642;2024-03-02T06:11:40;6.22;;;2.72;;
23181;SDS011;11759;51.282;6.642;2024-03-02T06:14:08;4.18;;;2.45;;
23181;SDS011;11759;51.282;6.642;2024-03-02T06:16:35;5.40;;;2.53;;
23181;SDS011;11759;51.282;6.642;2024-03-02T06:19:01;4.68;;;2.33;;
23181;SDS011;11759;51.282;6.642;2024-03-02T06:21:28;4.93;;;2.45;;
23181;SDS011;11759;51.282;6.642;2024-03-02T06:23:56;4.05;;;2.47;;
23181;SDS011;11759;51.282;6.642;2024-03-02T06:26:23;4.97;;;2.60;;
23181;SDS011;11759;51.282;6.642;2024-03-02T06:28:51;8.80;;;2.55;;
23181;SDS011;11759;51.282;6.642;2024-03-02T06:31:18;5.78;;;2.63;;
23181;SDS011;11759;51.282;6.642;2024-03-02T06:33:45;5.07;;;2.70;;
23181;SDS011;11759;51.282;6.642;2024-03-02T06:36:12;4.72;;;2.60;;
23181;SDS011;11759;51.282;6.642;2024-03-02T06:38:39;6.53;;;2.72;;
23181;SDS011;11759;51.282;6.642;2024-03-02T06:41:09;5.18;;;2.90;;
23181;SDS011;11759;51.282;6.642;2024-03-02T06:43:36;8.73;;;2.92;;
23181;SDS011;11759;51.282;6.642;2024-03-02T06:46:02;7.05;;;3.40;;
23181;SDS011;11759;51.282;6.642;2024-03-02T06:48:29;6.60;;;3.22;;
23181;SDS011;11759;51.282;6.642;2024-03-02T06:50:56;5.85;;;3.00;;
23181;SDS011;11759;51.282;6.642;2024-03-02T06:53:25;6.20;;;3.15;;
23181;SDS011;11759;51.282;6.642;2024-03-02T06:55:51;8.48;;;2.70;;
23181;SDS011;11759;51.282;6.642;2024-03-02T06:58:18;8.45;;;3.00;;
23181;SDS011;11759;51.282;6.642;2024-03-02T07:00:45;5.75;;;2.95;;
23181;SDS011;11759;51.282;6.642;2024-03-02T07:03:11;6.55;;;2.83;;
23181;SDS011;11759;51.282;6.642;2024-03-02T07:05:39;5.70;;;2.75;;
23181;SDS011;11759;51.282;6.642;2024-03-02T07:08:05;4.05;;;2.35;;
23181;SDS011;11759;51.282;6.642;2024-03-02T07:10:32;6.47;;;2.58;;
23181;SDS011;11759;51.282;6.642;2024-03-02T07:12:59;4.72;;;2.60;;
23181;SDS011;11759;51.282;6.642;2024-03-02T07:15:26;4.38;;;2.75;;
23181;SDS011;11759;51.282;6.642;2024-03-02T07:18:15;6.18;;;2.63;;
23181;SDS011;11759;51.282;6.642;2024-03-02T07:20:41;6.00;;;2.88;;
23181;SDS011;11759;51.282;6.642;2024-03-02T07:23:08;9.38;;;2.58;;
23181;SDS011;11759;51.282;6.642;2024-03-02T07:25:35;4.88;;;2.58;;
23181;SDS011;11759;51.282;6.642;2024-03-02T07:28:05;5.68;;;2.75;;
23181;SDS011;11759;51.282;6.642;2024-03-02T07:30:33;8.40;;;2.90;;
23181;SDS011;11759;51.282;6.642;2024-03-02T07:33:00;5.72;;;2.55;;
23181;SDS011;11759;51.282;6.642;2024-03-02T07:35:26;4.78;;;2.72;;
23181;SDS011;11759;51.282;6.642;2024-03-02T07:37:53;8.30;;;2.58;;
23181;SDS011;11759;51.282;6.642;2024-03-02T07:40:20;6.38;;;2.50;;
23181;SDS011;11759;51.282;6.642;2024-03-02T07:42:47;6.55;;;2.70;;
23181;SDS011;11759;51.282;6.642;2024-03-02T07:45:13;5.15;;;2.60;;
23181;SDS011;11759;51.282;6.642;2024-03-02T07:47:40;6.25;;;2.63;;
23181;SDS011;11759;51.282;6.642;2024-03-02T07:50:07;6.13;;;2.40;;
23181;SDS011;11759;51.282;6.642;2024-03-02T07:52:34;6.30;;;2.42;;
23181;SDS011;11759;51.282;6.642;2024-03-02T07:55:01;4.22;;;2.13;;
23181;SDS011;11759;51.282;6.642;2024-03-02T07:57:27;5.38;;;2.35;;
23181;SDS011;11759;51.282;6.642;2024-03-02T07:59:54;5.00;;;2.35;;
23181;SDS011;11759;51.282;6.642;2024-03-02T08:02:21;3.33;;;2.25;;
23181;SDS011;11759;51.282;6.642;2024-03-02T08:04:48;8.88;;;2.03;;
23181;SDS011;11759;51.282;6.642;2024-03-02T08:07:15;5.85;;;2.33;;
23181;SDS011;11759;51.282;6.642;2024-03-02T08:09:42;6.55;;;1.95;;
23181;SDS011;11759;51.282;6.642;2024-03-02T08:12:09;4.43;;;2.00;;
23181;SDS011;11759;51.282;6.642;2024-03-02T08:14:35;5.18;;;2.22;;
23181;SDS011;11759;51.282;6.642;2024-03-02T08:17:02;5.10;;;2.08;;
23181;SDS011;11759;51.282;6.642;2024-03-02T08:19:29;4.13;;;1.80;;
23181;SDS011;11759;51.282;6.642;2024-03-02T08:21:56;7.53;;;2.30;;
23181;SDS011;11759;51.282;6.642;2024-03-02T08:24:23;9.82;;;2.08;;
23181;SDS011;11759;51.282;6.642;2024-03-02T08:26:49;3.60;;;1.85;;
23181;SDS011;11759;51.282;6.642;2024-03-02T08:29:16;3.67;;;1.98;;
23181;SDS011;11759;51.282;6.642;2024-03-02T08:31:43;2.03;;;1.58;;
23181;SDS011;11759;51.282;6.642;2024-03-02T08:34:09;4.55;;;2.83;;
23181;SDS011;11759;51.282;6.642;2024-03-02T08:36:36;6.05;;;1.60;;
23181;SDS011;11759;51.282;6.642;2024-03-02T08:39:03;4.88;;;1.70;;
23181;SDS011;11759;51.282;6.642;2024-03-02T08:41:33;3.57;;;1.80;;
23181;SDS011;11759;51.282;6.642;2024-03-02T08:44:00;3.30;;;2.05;;
23181;SDS011;11759;51.282;6.642;2024-03-02T08:46:27;8.02;;;1.60;;
23181;SDS011;11759;51.282;6.642;2024-03-02T08:48:53;4.10;;;2.05;;
23181;SDS011;11759;51.282;6.642;2024-03-02T08:51:20;4.10;;;1.80;;
23181;SDS011;11759;51.282;6.642;2024-03-02T08:53:47;2.92;;;1.50;;
23181;SDS011;11759;51.282;6.642;2024-03-02T08:56:13;3.10;;;1.58;;
23181;SDS011;11759;51.282;6.642;2024-03-02T08:58:42;2.63;;;1.50;;
23181;SDS011;11759;51.282;6.642;2024-03-02T09:01:10;2.42;;;1.50;;
23181;SDS011;11759;51.282;6.642;2024-03-02T09:03:37;4.22;;;1.70;;
23181;SDS011;11759;51.282;6.642;2024-03-02T09:06:04;2.85;;;1.67;;
23181;SDS011;11759;51.282;6.642;2024-03-02T09:08:30;5.70;;;1.60;;
23181;SDS011;11759;51.282;6.642;2024-03-02T09:10:57;4.28;;;1.60;;
23181;SDS011;11759;51.282;6.642;2024-03-02T09:13:24;5.47;;;1.80;;
23181;SDS011;11759;51.282;6.642;2024-03-02T09:15:51;3.17;;;1.38;;
23181;SDS011;11759;51.282;6.642;2024-03-02T09:18:18;2.38;;;1.42;;
23181;SDS011;11759;51.282;6.642;2024-03-02T09:20:44;5.07;;;1.65;;
23181;SDS011;11759;51.282;6.642;2024-03-02T09:23:12;4.68;;;1.30;;
23181;SDS011;11759;51.282;6.642;2024-03-02T09:25:39;4.60;;;1.27;;
23181;SDS011;11759;51.282;6.642;2024-03-02T09:28:05;2.75;;;1.00;;
23181;SDS011;11759;51.282;6.642;2024-03-02T09:30:33;2.92;;;1.33;;
23181;SDS011;11759;51.282;6.642;2024-03-02T09:33:00;6.03;;;1.95;;
23181;SDS011;11759;51.282;6.642;2024-03-02T09:35:30;3.15;;;1.30;;
23181;SDS011;11759;51.282;6.642;2024-03-02T09:37:56;4.15;;;1.00;;
23181;SDS011;11759;51.282;6.642;2024-03-02T09:40:23;1.25;;;0.90;;
23181;SDS011;11759;51.282;6.642;2024-03-02T09:42:50;2.10;;;1.13;;
23181;SDS011;11759;51.282;6.642;2024-03-02T09:45:21;3.17;;;1.00;;
23181;SDS011;11759;51.282;6.642;2024-03-02T09:47:50;4.60;;;1.10;;
23181;SDS011;11759;51.282;6.642;2024-03-02T09:50:16;4.60;;;1.13;;
23181;SDS011;11759;51.282;6.642;2024-03-02T09:52:43;2.50;;;1.63;;
23181;SDS011;11759;51.282;6.642;2024-03-02T09:55:11;5.47;;;1.10;;
23181;SDS011;11759;51.282;6.642;2024-03-02T09:57:38;2.47;;;1.10;;
23181;SDS011;11759;51.282;6.642;2024-03-02T10:00:07;4.47;;;1.00;;
23181;SDS011;11759;51.282;6.642;2024-03-02T10:02:34;2.88;;;0.98;;
23181;SDS011;11759;51.282;6.642;2024-03-02T10:05:01;4.97;;;1.10;;
23181;SDS011;11759;51.282;6.642;2024-03-02T10:07:30;4.25;;;1.05;;
23181;SDS011;11759;51.282;6.642;2024-03-02T10:09:56;6.05;;;0.82;;
23181;SDS011;11759;51.282;6.642;2024-03-02T10:12:23;2.40;;;1.05;;
23181;SDS011;11759;51.282;6.642;2024-03-02T10:14:50;4.82;;;1.00;;
23181;SDS011;11759;51.282;6.642;2024-03-02T10:17:30;3.13;;;1.20;;
23181;SDS011;11759;51.282;6.642;2024-03-02T10:19:58;5.07;;;0.95;;
23181;SDS011;11759;51.282;6.642;2024-03-02T10:22:24;3.60;;;0.80;;
23181;SDS011;11759;51.282;6.642;2024-03-02T10:24:52;4.30;;;0.95;;
23181;SDS011;11759;51.282;6.642;2024-03-02T10:27:26;2.67;;;0.88;;
23181;SDS011;11759;51.282;6.642;2024-03-02T10:29:53;3.42;;;0.63;;
23181;SDS011;11759;51.282;6.642;2024-03-02T10:32:20;2.53;;;0.80;;
23181;SDS011;11759;51.282;6.642;2024-03-02T10:34:48;3.78;;;0.95;;
23181;SDS011;11759;51.282;6.642;2024-03-02T10:37:16;4.03;;;1.27;;
23181;SDS011;11759;51.282;6.642;2024-03-02T10:39:46;0.75;;;0.52;;
23181;SDS011;11759;51.282;6.642;2024-03-02T10:42:13;7.15;;;1.08;;
23181;SDS011;11759;51.282;6.642;2024-03-02T10:44:40;1.98;;;0.82;;
23181;SDS011;11759;51.282;6.642;2024-03-02T10:47:07;2.53;;;0.90;;
23181;SDS011;11759;51.282;6.642;2024-03-02T10:49:35;3.83;;;1.08;;
23181;SDS011;11759;51.282;6.642;2024-03-02T10:52:03;3.22;;;1.17;;
23181;SDS011;11759;51.282;6.642;2024-03-02T10:54:30;2.08;;;0.90;;
23181;SDS011;11759;51.282;6.642;2024-03-02T10:57:03;2.75;;;1.02;;
23181;SDS011;11759;51.282;6.642;2024-03-02T10:59:35;2.35;;;0.85;;
23181;SDS011;11759;51.282;6.642;2024-03-02T11:02:03;2.53;;;0.63;;
23181;SDS011;11759;51.282;6.642;2024-03-02T11:04:32;2.88;;;0.90;;
23181;SDS011;11759;51.282;6.642;2024-03-02T11:07:04;2.00;;;0.90;;
23181;SDS011;11759;51.282;6.642;2024-03-02T11:09:34;3.25;;;0.80;;
23181;SDS011;11759;51.282;6.642;2024-03-02T11:12:22;2.45;;;0.95;;
23181;SDS011;11759;51.282;6.642;2024-03-02T11:14:50;2.38;;;0.90;;
23181;SDS011;11759;51.282;6.642;2024-03-02T11:17:18;2.67;;;0.80;;
23181;SDS011;11759;51.282;6.642;2024-03-02T11:19:45;2.00;;;0.80;;
23181;SDS011;11759;51.282;6.642;2024-03-02T11:22:13;1.27;;;0.52;;
23181;SDS011;11759;51.282;6.642;2024-03-02T11:24:40;2.05;;;0.80;;
23181;SDS011;11759;51.282;6.642;2024-03-02T11:27:14;3.22;;;0.80;;
23181;SDS011;11759;51.282;6.642;2024-03-02T11:29:42;1.70;;;0.73;;
23181;SDS011;11759;51.282;6.642;2024-03-02T11:32:16;2.05;;;0.90;;
23181;SDS011;11759;51.282;6.642;2024-03-02T11:34:45;4.40;;;0.80;;
23181;SDS011;11759;51.282;6.642;2024-03-02T11:37:19;2.33;;;0.80;;
23181;SDS011;11759;51.282;6.642;2024-03-02T11:39:47;3.50;;;0.98;;
23181;SDS011;11759;51.282;6.642;2024-03-02T11:42:15;4.90;;;0.65;;
23181;SDS011;11759;51.282;6.642;2024-03-02T11:44:43;2.28;;;0.70;;
23181;SDS011;11759;51.282;6.642;2024-03-02T11:47:13;1.45;;;0.70;;
23181;SDS011;11759;51.282;6.642;2024-03-02T11:49:42;3.75;;;0.82;;
23181;SDS011;11759;51.282;6.642;2024-03-02T11:54:41;5.55;;;0.70;;
23181;SDS011;11759;51.282;6.642;2024-03-02T11:57:16;2.40;;;0.70;;
23181;SDS011;11759;51.282;6.642;2024-03-02T11:59:48;2.38;;;0.60;;
23181;SDS011;11759;51.282;6.642;2024-03-02T12:02:19;5.78;;;0.90;;
23181;SDS011;11759;51.282;6.642;2024-03-02T12:04:46;5.80;;;0.80;;
23181;SDS011;11759;51.282;6.642;2024-03-02T12:07:21;2.78;;;0.70;;
23181;SDS011;11759;51.282;6.642;2024-03-02T12:09:59;3.78;;;0.90;;
23181;SDS011;11759;51.282;6.642;2024-03-02T12:12:26;4.38;;;0.80;;
23181;SDS011;11759;51.282;6.642;2024-03-02T12:14:53;4.13;;;0.80;;
23181;SDS011;11759;51.282;6.642;2024-03-02T12:17:22;5.22;;;1.63;;
23181;SDS011;11759;51.282;6.642;2024-03-02T12:19:48;4.03;;;0.85;;
23181;SDS011;11759;51.282;6.642;2024-03-02T12:22:15;1.20;;;0.80;;
23181;SDS011;11759;51.282;6.642;2024-03-02T12:24:42;1.13;;;0.73;;
23181;SDS011;11759;51.282;6.642;2024-03-02T12:27:14;1.55;;;0.73;;
23181;SDS011;11759;51.282;6.642;2024-03-02T12:29:41;4.22;;;1.13;;
23181;SDS011;11759;51.282;6.642;2024-03-02T12:32:08;4.20;;;0.80;;
23181;SDS011;11759;51.282;6.642;2024-03-02T12:34:35;3.33;;;0.75;;
23181;SDS011;11759;51.282;6.642;2024-03-02T12:37:02;4.13;;;0.80;;
23181;SDS011;11759;51.282;6.642;2024-03-02T12:39:29;3.05;;;0.93;;
23181;SDS011;11759;51.282;6.642;2024-03-02T12:41:59;3.60;;;1.08;;
23181;SDS011;11759;51.282;6.642;2024-03-02T12:44:25;3.47;;;0.90;;
23181;SDS011;11759;51.282;6.642;2024-03-02T12:46:52;3.38;;;0.75;;
23181;SDS011;11759;51.282;6.642;2024-03-02T12:49:24;4.80;;;1.10;;
23181;SDS011;11759;51.282;6.642;2024-03-02T12:51:51;3.17;;;0.90;;
23181;SDS011;11759;51.282;6.642;2024-03-02T12:54:21;0.90;;;0.70;;
23181;SDS011;11759;51.282;6.642;2024-03-02T12:56:48;2.78;;;0.85;;
23181;SDS011;11759;51.282;6.642;2024-03-02T12:59:18;1.20;;;0.85;;
23181;SDS011;11759;51.282;6.642;2024-03-02T13:01:50;2.95;;;1.08;;
23181;SDS011;11759;51.282;6.642;2024-03-02T13:04:21;3.00;;;1.15;;
23181;SDS011;11759;51.282;6.642;2024-03-02T13:06:49;1.52;;;0.98;;
23181;SDS011;11759;51.282;6.642;2024-03-02T13:09:17;3.42;;;1.05;;
23181;SDS011;11759;51.282;6.642;2024-03-02T13:11:44;2.08;;;1.10;;
23181;SDS011;11759;51.282;6.642;2024-03-02T13:14:11;2.35;;;1.00;;
23181;SDS011;11759;51.282;6.642;2024-03-02T13:16:41;2.38;;;1.02;;
23181;SDS011;11759;51.282;6.642;2024-03-02T13:19:13;2.63;;;1.17;;
23181;SDS011;11759;51.282;6.642;2024-03-02T13:21:40;4.40;;;1.08;;
23181;SDS011;11759;51.282;6.642;2024-03-02T13:24:07;3.55;;;0.90;;
23181;SDS011;11759;51.282;6.642;2024-03-02T13:26:34;2.80;;;0.93;;
23181;SDS011;11759;51.282;6.642;2024-03-02T13:29:01;3.60;;;1.13;;
23181;SDS011;11759;51.282;6.642;2024-03-02T13:31:28;3.20;;;1.13;;
23181;SDS011;11759;51.282;6.642;2024-03-02T13:33:54;3.75;;;1.30;;
23181;SDS011;11759;51.282;6.642;2024-03-02T13:36:21;4.68;;;1.17;;
23181;SDS011;11759;51.282;6.642;2024-03-02T13:38:48;1.88;;;1.08;;
23181;SDS011;11759;51.282;6.642;2024-03-02T13:41:14;3.33;;;1.38;;
23181;SDS011;11759;51.282;6.642;2024-03-02T13:43:41;4.13;;;1.40;;
23181;SDS011;11759;51.282;6.642;2024-03-02T13:46:08;3.35;;;1.20;;
23181;SDS011;11759;51.282;6.642;2024-03-02T13:48:36;2.38;;;1.30;;
23181;SDS011;11759;51.282;6.642;2024-03-02T13:51:03;3.60;;;1.27;;
23181;SDS011;11759;51.282;6.642;2024-03-02T13:53:30;2.50;;;1.20;;
23181;SDS011;11759;51.282;6.642;2024-03-02T13:55:58;2.53;;;1.20;;
23181;SDS011;11759;51.282;6.642;2024-03-02T13:58:25;2.83;;;0.98;;
23181;SDS011;11759;51.282;6.642;2024-03-02T14:00:51;2.53;;;1.42;;
23181;SDS011;11759;51.282;6.642;2024-03-02T14:03:18;2.33;;;1.33;;
23181;SDS011;11759;51.282;6.642;2024-03-02T14:05:45;5.30;;;1.40;;
23181;SDS011;11759;51.282;6.642;2024-03-02T14:08:12;1.95;;;1.20;;
23181;SDS011;11759;51.282;6.642;2024-03-02T14:10:39;2.28;;;1.05;;
23181;SDS011;11759;51.282;6.642;2024-03-02T14:13:06;2.85;;;1.10;;
23181;SDS011;11759;51.282;6.642;2024-03-02T14:15:32;1.75;;;1.00;;
23181;SDS011;11759;51.282;6.642;2024-03-02T14:17:59;1.13;;;0.90;;
23181;SDS011;11759;51.282;6.642;2024-03-02T14:20:26;2.65;;;1.30;;
23181;SDS011;11759;51.282;6.642;2024-03-02T14:22:53;1.65;;;1.00;;
23181;SDS011;11759;51.282;6.642;2024-03-02T14:25:19;2.05;;;1.30;;
23181;SDS011;11759;51.282;6.642;2024-03-02T14:27:46;2.05;;;0.88;;
23181;SDS011;11759;51.282;6.642;2024-03-02T14:30:33;2.97;;;1.00;;
23181;SDS011;11759;51.282;6.642;2024-03-02T14:33:00;1.90;;;1.25;;
23181;SDS011;11759;51.282;6.642;2024-03-02T14:35:27;2.90;;;1.17;;
23181;SDS011;11759;51.282;6.642;2024-03-02T14:37:55;2.30;;;1.13;;
23181;SDS011;11759;51.282;6.642;2024-03-02T14:40:23;2.13;;;1.23;;
23181;SDS011;11759;51.282;6.642;2024-03-02T14:42:53;4.07;;;1.30;;
23181;SDS011;11759;51.282;6.642;2024-03-02T14:45:19;1.98;;;1.02;;
23181;SDS011;11759;51.282;6.642;2024-03-02T14:47:46;3.15;;;1.50;;
23181;SDS011;11759;51.282;6.642;2024-03-02T14:50:13;2.78;;;1.10;;
23181;SDS011;11759;51.282;6.642;2024-03-02T14:52:41;1.30;;;1.02;;
23181;SDS011;11759;51.282;6.642;2024-03-02T14:55:11;2.67;;;1.20;;
23181;SDS011;11759;51.282;6.642;2024-03-02T14:57:38;3.05;;;1.20;;
23181;SDS011;11759;51.282;6.642;2024-03-02T15:00:04;3.42;;;0.93;;
23181;SDS011;11759;51.282;6.642;2024-03-02T15:02:34;1.73;;;0.82;;